createdAt,value
2018-07-22T00:01:29.500Z,8.11
2018-07-22T00:07:24.479Z,7.19
2018-07-22T00:13:19.491Z,7.44
2018-07-22T00:19:14.481Z,9.7
2018-07-22T00:25:09.478Z,9.86
2018-07-22T00:31:04.488Z,9.78
2018-07-22T00:36:59.505Z,9.99
2018-07-22T00:42:54.483Z,10.43
2018-07-22T00:48:49.508Z,10.12
2018-07-22T00:54:44.529Z,10.9
2018-07-22T01:00:39.516Z,10.07
2018-07-22T01:06:34.506Z,11.43
2018-07-22T01:12:29.511Z,10.39
2018-07-22T01:18:24.545Z,10.52
2018-07-22T01:24:19.578Z,10.96
2018-07-22T01:30:14.526Z,10.74
2018-07-22T01:36:09.547Z,9.47
2018-07-22T01:42:04.590Z,10.96
2018-07-22T01:47:59.565Z,9.74
2018-07-22T01:53:54.556Z,10.35
2018-07-22T01:59:49.622Z,10.37
2018-07-22T02:05:44.591Z,10.17
2018-07-22T02:11:39.582Z,11.65
2018-07-22T02:17:34.588Z,9.92
2018-07-22T02:23:29.607Z,9.76
2018-07-22T02:29:24.599Z,10.24
2018-07-22T02:35:19.607Z,10.69
2018-07-22T02:41:14.586Z,10.44
2018-07-22T02:47:09.608Z,10.73
2018-07-22T02:53:04.606Z,10.24
2018-07-22T02:58:59.614Z,10.32
2018-07-22T03:04:54.637Z,10.45
2018-07-22T03:10:49.616Z,11.26
2018-07-22T03:16:44.649Z,10.76
2018-07-22T03:22:39.627Z,10.83
2018-07-22T03:28:34.665Z,10.92
2018-07-22T03:34:29.680Z,10.18
2018-07-22T03:40:25.379Z,10.46
2018-07-22T03:46:19.660Z,10.23
2018-07-22T03:52:14.694Z,10.5
2018-07-22T03:58:09.681Z,10.07
2018-07-22T04:04:04.667Z,11.32
2018-07-22T04:09:59.649Z,11.35
2018-07-22T04:15:54.684Z,11.45
2018-07-22T04:21:49.671Z,11.06
2018-07-22T04:27:44.676Z,10.99
2018-07-22T04:33:39.689Z,11.17
2018-07-22T04:39:34.715Z,10.7
2018-07-22T04:45:29.698Z,10.5
2018-07-22T04:51:24.707Z,11.32
2018-07-22T04:57:19.699Z,11.4
2018-07-22T05:03:14.703Z,11.81
2018-07-22T05:09:09.733Z,12.68
2018-07-22T05:15:04.710Z,12.51
2018-07-22T05:20:59.780Z,13.79
2018-07-22T05:26:54.736Z,14.19
2018-07-22T05:32:49.731Z,15.43
2018-07-22T05:38:44.759Z,13.77
2018-07-22T05:44:39.766Z,13.51
2018-07-22T05:50:39.853Z,12.65
2018-07-22T05:56:29.772Z,12.83
2018-07-22T06:02:24.739Z,12.3
2018-07-22T06:08:19.749Z,12.52
2018-07-22T06:14:14.751Z,11.96
2018-07-22T06:20:09.856Z,12.26
2018-07-22T06:26:04.808Z,11.44
2018-07-22T06:31:59.768Z,10.71
2018-07-22T06:37:54.771Z,10.91
2018-07-22T06:43:49.789Z,10.8
2018-07-22T06:49:44.786Z,10.69
2018-07-22T06:55:39.840Z,11.31
2018-07-22T07:01:34.819Z,11.01
2018-07-22T07:07:29.801Z,10.93
2018-07-22T07:13:24.799Z,10.49
2018-07-22T07:19:19.825Z,11.62
2018-07-22T07:25:14.815Z,11.25
2018-07-22T07:31:09.817Z,12.42
2018-07-22T07:37:04.896Z,12.78
2018-07-22T07:42:59.831Z,13.76
2018-07-22T07:48:54.820Z,11.71
2018-07-22T07:54:49.830Z,10.31
2018-07-22T08:00:44.834Z,8.6
2018-07-22T08:06:39.867Z,9.27
2018-07-22T08:12:34.893Z,7.44
2018-07-22T08:18:29.867Z,7.13
2018-07-22T08:24:24.892Z,6.73
2018-07-22T08:30:20.674Z,7.58
2018-07-22T08:36:14.870Z,11.23
2018-07-22T08:42:09.896Z,9.58
2018-07-22T08:48:04.941Z,10.29
2018-07-22T08:53:59.892Z,9.73
2018-07-22T08:59:54.882Z,9.64
2018-07-22T09:05:49.871Z,9.72
2018-07-22T09:11:44.947Z,8.39
2018-07-22T09:17:39.936Z,7.57
2018-07-22T09:23:34.959Z,8.36
2018-07-22T09:29:29.928Z,7.08
2018-07-22T09:35:24.976Z,7.16
2018-07-22T09:41:19.940Z,6.39
2018-07-22T09:47:14.915Z,5.98
2018-07-22T09:53:09.927Z,5.13
2018-07-22T09:59:04.979Z,4.9
2018-07-22T10:04:59.967Z,4.83
2018-07-22T10:10:55.016Z,3.25
2018-07-22T10:16:49.964Z,3.33
2018-07-22T10:22:44.986Z,3.17
2018-07-22T10:28:40.060Z,3.27
2018-07-22T10:34:35.039Z,3.05
2018-07-22T10:40:30.029Z,3.27
2018-07-22T10:46:24.993Z,3.08
2018-07-22T10:52:20.017Z,2.69
2018-07-22T10:58:15.104Z,2.91
2018-07-22T11:04:10.007Z,2.92
2018-07-22T11:10:05.038Z,2.98
2018-07-22T11:16:00.021Z,3.16
2018-07-22T11:21:55.013Z,3.21
2018-07-22T11:27:50.012Z,3.88
2018-07-22T11:33:45.097Z,2.99
2018-07-22T11:39:40.049Z,3.56
2018-07-22T11:45:35.033Z,3.22
2018-07-22T11:51:30.063Z,3.74
2018-07-22T11:57:25.037Z,3.29
2018-07-22T12:03:20.067Z,3.04
2018-07-22T12:09:15.089Z,3.65
2018-07-22T12:15:10.127Z,3.76
2018-07-22T12:21:05.066Z,4.5
2018-07-22T12:27:00.118Z,4.23
2018-07-22T12:32:55.115Z,3.67
2018-07-22T12:38:50.164Z,4.6
2018-07-22T12:44:45.096Z,3.91
2018-07-22T12:50:40.155Z,3.95
2018-07-22T12:56:35.132Z,4.03
2018-07-22T13:02:30.174Z,3.32
2018-07-22T13:08:25.133Z,4.09
2018-07-22T13:14:20.141Z,3.22
2018-07-22T13:20:15.126Z,3.05
2018-07-22T13:26:10.110Z,3.02
2018-07-22T13:32:05.228Z,3.03
2018-07-22T13:38:00.200Z,3.05
2018-07-22T13:43:55.171Z,3
2018-07-22T13:49:50.151Z,2.85
2018-07-22T13:55:45.163Z,2.69
2018-07-22T14:01:40.152Z,3.26
2018-07-22T14:07:35.220Z,3.04
2018-07-22T14:13:30.193Z,3.38
2018-07-22T14:19:25.184Z,3.49
2018-07-22T14:25:20.169Z,3.39
2018-07-22T14:31:15.219Z,3.13
2018-07-22T14:37:10.199Z,2.94
2018-07-22T14:43:05.214Z,3.08
2018-07-22T14:49:00.217Z,2.4
2018-07-22T14:54:55.282Z,2.53
2018-07-22T15:00:50.222Z,2.63
2018-07-22T15:06:45.279Z,2.26
2018-07-22T15:12:40.210Z,2.16
2018-07-22T15:18:35.208Z,2.23
2018-07-22T15:24:30.240Z,2.08
2018-07-22T15:30:25.302Z,2.33
2018-07-22T15:36:20.257Z,2.3
2018-07-22T15:42:15.240Z,2.25
2018-07-22T15:48:10.258Z,3.03
2018-07-22T15:54:05.271Z,2.72
2018-07-22T16:00:00.285Z,2.67
2018-07-22T16:05:55.285Z,2.66
2018-07-22T16:11:50.280Z,2.43
2018-07-22T16:17:45.337Z,2.39
2018-07-22T16:23:40.283Z,2.37
2018-07-22T16:29:35.304Z,2.73
2018-07-22T16:35:30.310Z,3.02
2018-07-22T16:41:25.336Z,2.91
2018-07-22T16:47:20.308Z,3.37
2018-07-22T16:53:15.317Z,3.97
2018-07-22T16:59:10.330Z,3.26
2018-07-22T17:05:05.354Z,3.32
2018-07-22T17:11:00.332Z,3.48
2018-07-22T17:16:55.369Z,3.44
2018-07-22T17:22:50.344Z,3.57
2018-07-22T17:28:45.343Z,3.95
2018-07-22T17:34:40.345Z,3.69
2018-07-22T17:40:35.375Z,3.9
2018-07-22T17:46:30.359Z,3.92
2018-07-22T17:52:25.389Z,4.28
2018-07-22T17:58:20.383Z,4.34
2018-07-22T18:04:15.430Z,4.16
2018-07-22T18:10:10.370Z,4.26
2018-07-22T18:16:05.415Z,4.69
2018-07-22T18:22:00.421Z,4.82
2018-07-22T18:27:55.388Z,5.16
2018-07-22T18:33:50.427Z,5.24
2018-07-22T18:39:45.439Z,5.27
2018-07-22T18:45:40.434Z,5.13
2018-07-22T18:51:35.403Z,6.05
2018-07-22T18:57:30.463Z,6.08
2018-07-22T19:03:25.519Z,5.86
2018-07-22T19:09:20.436Z,7.39
2018-07-22T19:15:15.489Z,4.86
2018-07-22T19:21:10.458Z,4.55
2018-07-22T19:27:05.440Z,4.52
2018-07-22T19:33:00.441Z,4.48
2018-07-22T19:38:55.487Z,7.53
2018-07-22T19:44:50.507Z,4.42
2018-07-22T19:50:45.495Z,5.24
2018-07-22T19:56:40.506Z,5.01
2018-07-22T20:02:35.519Z,4.83
2018-07-22T20:08:30.465Z,5.04
2018-07-22T20:14:25.545Z,4.91
2018-07-22T20:20:20.532Z,5.18
2018-07-22T20:26:15.537Z,5.8
2018-07-22T20:32:10.549Z,5.7
2018-07-22T20:38:05.572Z,6.11
2018-07-22T20:44:00.519Z,6.46
2018-07-22T20:49:55.554Z,6.58
2018-07-22T20:55:50.514Z,6.75
2018-07-22T21:01:45.517Z,6.71
2018-07-22T21:07:40.574Z,6.39
2018-07-22T21:13:35.526Z,6.53
2018-07-22T21:19:30.537Z,6.02
2018-07-22T21:25:25.578Z,6.07
2018-07-22T21:31:20.541Z,6.22
2018-07-22T21:37:15.629Z,6.17
2018-07-22T21:43:10.584Z,6.87
2018-07-22T21:49:05.633Z,7.33
2018-07-22T21:55:00.625Z,6.28
2018-07-22T22:00:55.578Z,6.7
2018-07-22T22:06:50.622Z,6.18
2018-07-22T22:12:45.589Z,6.47
2018-07-22T22:18:40.623Z,6.31
2018-07-22T22:24:35.669Z,7.57
2018-07-22T22:30:30.610Z,6.96
2018-07-22T22:36:25.618Z,6.93
2018-07-22T22:42:20.628Z,7.52
2018-07-22T22:48:15.634Z,6.98
2018-07-22T22:54:10.638Z,7
2018-07-22T23:00:05.630Z,7.43
2018-07-22T23:06:00.670Z,7.27
2018-07-22T23:11:55.657Z,7.37
2018-07-22T23:17:50.648Z,8
2018-07-22T23:23:45.640Z,7.1
2018-07-22T23:29:40.661Z,7.97
2018-07-22T23:35:35.657Z,8.34
2018-07-22T23:41:30.701Z,8.16
2018-07-22T23:47:25.664Z,8.16
2018-07-22T23:53:20.718Z,8.17
2018-07-22T23:59:15.687Z,8.5
